地図

経路データ

SID SEASON NUMBER BASIN SUBBASIN NAME ISO_TIME NATURE LAT LON WMO_WIND WMO_PRES WMO_AGENCY TRACK_TYPE DIST2LAND LANDFALL IFLAG USA_AGENCY USA_ATCF_ID USA_LAT USA_LON USA_RECORD USA_STATUS USA_WIND USA_PRES USA_SSHS USA_R34_NE USA_R34_SE USA_R34_SW USA_R34_NW USA_R50_NE USA_R50_SE USA_R50_SW USA_R50_NW USA_R64_NE USA_R64_SE USA_R64_SW USA_R64_NW USA_POCI USA_ROCI USA_RMW USA_EYE TOKYO_LAT TOKYO_LON TOKYO_GRADE TOKYO_WIND TOKYO_PRES TOKYO_R50_DIR TOKYO_R50_LONG TOKYO_R50_SHORT TOKYO_R30_DIR TOKYO_R30_LONG TOKYO_R30_SHORT TOKYO_LAND CMA_LAT CMA_LON CMA_CAT CMA_WIND CMA_PRES HKO_LAT HKO_LON HKO_CAT HKO_WIND HKO_PRES NEWDELHI_LAT NEWDELHI_LON NEWDELHI_GRADE NEWDELHI_WIND NEWDELHI_PRES NEWDELHI_CI NEWDELHI_DP NEWDELHI_POCI REUNION_LAT REUNION_LON REUNION_TYPE REUNION_WIND REUNION_PRES REUNION_TNUM REUNION_CI REUNION_RMW REUNION_R34_NE REUNION_R34_SE REUNION_R34_SW REUNION_R34_NW REUNION_R50_NE REUNION_R50_SE REUNION_R50_SW REUNION_R50_NW REUNION_R64_NE REUNION_R64_SE REUNION_R64_SW REUNION_R64_NW BOM_LAT BOM_LON BOM_TYPE BOM_WIND BOM_PRES BOM_TNUM BOM_CI BOM_RMW BOM_R34_NE BOM_R34_SE BOM_R34_SW BOM_R34_NW BOM_R50_NE BOM_R50_SE BOM_R50_SW BOM_R50_NW BOM_R64_NE BOM_R64_SE BOM_R64_SW BOM_R64_NW BOM_ROCI BOM_POCI BOM_EYE BOM_POS_METHOD BOM_PRES_METHOD NADI_LAT NADI_LON NADI_CAT NADI_WIND NADI_PRES WELLINGTON_LAT WELLINGTON_LON WELLINGTON_WIND WELLINGTON_PRES DS824_LAT DS824_LON DS824_STAGE DS824_WIND DS824_PRES TD9636_LAT TD9636_LON TD9636_STAGE TD9636_WIND TD9636_PRES TD9635_LAT TD9635_LON TD9635_WIND TD9635_PRES TD9635_ROCI NEUMANN_LAT NEUMANN_LON NEUMANN_CLASS NEUMANN_WIND NEUMANN_PRES MLC_LAT MLC_LON MLC_CLASS MLC_WIND MLC_PRES USA_GUST BOM_GUST BOM_GUST_PER REUNION_GUST REUNION_GUST_PER USA_SEAHGT USA_SEARAD_NE USA_SEARAD_SE USA_SEARAD_SW USA_SEARAD_NW STORM_SPEED STORM_DIR
1932035S13045 1932 12 SI MM NOT_NAMED 1932-02-03 18:00:00 NR -12.5000 45.0000 main 341 341 __________O___ -1 -12.5000 45.0000 2 1 98
1932035S13045 1932 12 SI MM NOT_NAMED 1932-02-03 21:00:00 NR -12.5057 45.0325 main 341 327 __________P___ -1 -12.5057 45.0325 2 1 118
1932035S13045 1932 12 SI MM NOT_NAMED 1932-02-04 00:00:00 NR -12.5591 45.1119 main 327 303 __________P___ -1 -12.5591 45.1119 2 3 129
1932035S13045 1932 12 SI MM NOT_NAMED 1932-02-04 03:00:00 NR -12.7081 45.2852 main 303 261 __________P___ -1 -12.7081 45.2852 2 7 133
1932035S13045 1932 12 SI MM NOT_NAMED 1932-02-04 06:00:00 TS -13.0000 45.6000 main 261 195 _________OO___ -1 -13.0000 45.6000 TC 35 -13.0000 45.6000 2 11 135
1932035S13045 1932 12 SI MM NOT_NAMED 1932-02-04 09:00:00 TS -13.5111 46.1216 main 195 108 _________PP___ -1 -13.6077 46.1945 TC 35 -13.4628 46.0852 2 16 135
1932035S13045 1932 12 SI MM NOT_NAMED 1932-02-04 12:00:00 TS -14.1122 46.7387 main 108 15 _________OP___ -1 -14.2000 46.8000 TC 35 -14.0464 46.6926 2 17 135
1932035S13045 1932 12 SI MM NOT_NAMED 1932-02-04 15:00:00 TS -14.7233 47.3846 main 11 0 _________PP___ -1 -14.7649 47.4152 TC 35 -14.6817 47.3541 2 17 134
1932035S13045 1932 12 SI MM NOT_NAMED 1932-02-04 18:00:00 TS -15.3000 48.0000 main 0 0 _________OO___ -1 -15.3000 48.0000 TC 35 -15.3000 48.0000 2 15 135
1932035S13045 1932 12 SI MM NOT_NAMED 1932-02-04 21:00:00 TS -15.7945 48.5091 main 0 0 _________PP___ -1 -15.8148 48.5153 TC 35 -15.7741 48.5029 2 14 135
1932035S13045 1932 12 SI MM NOT_NAMED 1932-02-05 00:00:00 TS -16.2629 48.9907 main 0 0 _________OP___ -1 -16.3000 49.0000 TC 35 -16.2258 48.9813 2 13 135
1932035S13045 1932 12 SI MM NOT_NAMED 1932-02-05 03:00:00 TS -16.7084 49.4736 main 0 0 _________PP___ -1 -16.7272 49.4783 TC 35 -16.6896 49.4689 2 14 134
1932035S13045 1932 12 SI MM NOT_NAMED 1932-02-05 06:00:00 TS -17.2000 50.0000 main 49 49 _________OO___ -1 -17.2000 50.0000 TC 35 -17.2000 50.0000 2 16 135
1932035S13045 1932 12 SI MM NOT_NAMED 1932-02-05 09:00:00 TS -17.8222 50.6279 main 117 117 _________PP___ -1 -17.8199 50.6201 TC 35 -17.8244 50.6357 2 18 136
1932035S13045 1932 12 SI MM NOT_NAMED 1932-02-05 12:00:00 TS -18.4965 51.3092 main 203 203 _________OP___ -1 -18.5000 51.3000 TC 35 -18.4931 51.3185 2 19 136
1932035S13045 1932 12 SI MM NOT_NAMED 1932-02-05 15:00:00 TS -19.1688 52.0124 main 295 295 _________PP___ -1 -19.1725 52.0075 TC 35 -19.1651 52.0172 2 19 135
1932035S13045 1932 12 SI MM NOT_NAMED 1932-02-05 18:00:00 TS -19.8000 52.7000 main 298 216 _________OO___ -1 -19.8000 52.7000 TC 35 -19.8000 52.7000 2 17 133
1932035S13045 1932 12 SI MM NOT_NAMED 1932-02-05 21:00:00 TS -20.3132 53.2968 main 216 149 _________PP___ -1 -20.3221 53.3158 TC 35 -20.3043 53.2779 2 15 132
1932035S13045 1932 12 SI MM NOT_NAMED 1932-02-06 00:00:00 TS -20.7870 53.8700 main 139 83 _________OP___ -1 -20.8000 53.9000 TC 35 -20.7741 53.8400 2 14 131
1932035S13045 1932 12 SI MM NOT_NAMED 1932-02-06 03:00:00 TS -21.2594 54.4442 main 85 53 _________PP___ -1 -21.2617 54.4566 TC 35 -21.2570 54.4319 2 15 131
1932035S13045 1932 12 SI MM NOT_NAMED 1932-02-06 06:00:00 TS -21.8000 55.1000 main 59 59 _________OO___ -1 -21.8000 55.1000 TC 35 -21.8000 55.1000 2 19 132
1932035S13045 1932 12 SI MM NOT_NAMED 1932-02-06 09:00:00 TS -22.4968 55.9375 main 126 126 _________PP___ -1 -22.5202 55.9546 TC 35 -22.4735 55.9203 2 22 132
1932035S13045 1932 12 SI MM NOT_NAMED 1932-02-06 12:00:00 TS -23.2532 56.8616 main 250 250 _________OP___ -1 -23.3000 56.9000 TC 35 -23.2064 56.8231 2 23 131
1932035S13045 1932 12 SI MM NOT_NAMED 1932-02-06 15:00:00 TS -23.9877 57.7866 main 364 364 _________PP___ -1 -24.0146 57.8083 TC 35 -23.9608 57.7648 2 22 131
1932035S13045 1932 12 SI MM NOT_NAMED 1932-02-06 18:00:00 TS -24.7000 58.7000 main 480 480 _________OO___ -1 -24.7000 58.7000 TC 35 -24.7000 58.7000 2 21 131
1932035S13045 1932 12 SI MM NOT_NAMED 1932-02-06 21:00:00 TS -25.3765 59.5754 main 581 581 _________PP___ -1 -25.3569 59.5587 TC 35 -25.3962 59.5921 2 21 130
1932035S13045 1932 12 SI MM NOT_NAMED 1932-02-07 00:00:00 TS -26.0269 60.4229 main 673 673 _________OP___ -1 -26.0000 60.4000 TC 35 -26.0539 60.4458 2 20 130
1932035S13045 1932 12 SI MM NOT_NAMED 1932-02-07 03:00:00 TS -26.6667 61.2610 main 783 783 _________PP___ -1 -26.6486 61.2454 TC 35 -26.6848 61.2765 2 20 130
1932035S13045 1932 12 SI MM NOT_NAMED 1932-02-07 06:00:00 TS -27.3000 62.1000 main 881 _________OO___ -1 -27.3000 62.1000 TC 35 -27.3000 62.1000 2 20 130

IBTrACS Databaseについて

本データベースは、米国NOAAが公開する1842年以降の世界の熱帯低気圧のベストトラックデータアーカイブInternational Best Track Archive for Climate Stewardship (IBTrACS)を、ウェブで閲覧しやすい形式に変換したものです。

最終更新日:2021-10-25